Time;durP1;ratioP1;P1;durP2;ratioP2;P2;SDS_P1;SDS_P2;PMS_P1;PMS_P2;Temp;Humidity;BMP_temperature;BMP_pressure;BME280_temperature;BME280_humidity;BME280_pressure;Samples;Min_cycle;Max_cycle;Signal;HPM_P1;HPM_P2
2022/06/26 00:01:21;;;;;;;17.13;15.20;;;;;;;;;;5010238;28;20274;-69
2022/06/26 00:03:46;;;;;;;19.00;15.75;;;;;;;;;;5009009;28;20791;-70
2022/06/26 00:06:12;;;;;;;15.70;14.13;;;;;;;;;;5011885;28;20186;-69
2022/06/26 00:08:37;;;;;;;19.05;16.67;;;;;;;;;;5009579;28;20215;-69
2022/06/26 00:11:02;;;;;;;17.67;15.57;;;;;;;;;;5001000;28;20677;-69
2022/06/26 00:13:28;;;;;;;17.67;15.77;;;;;;;;;;5015025;28;20202;-70
2022/06/26 00:15:53;;;;;;;17.08;15.27;;;;;;;;;;5009215;28;20209;-70
2022/06/26 00:18:18;;;;;;;18.13;14.73;;;;;;;;;;5001745;28;20226;-70
2022/06/26 00:20:43;;;;;;;16.90;15.10;;;;;;;;;;5006240;28;20175;-69
2022/06/26 00:23:09;;;;;;;18.95;16.75;;;;;;;;;;5003109;28;20204;-69
2022/06/26 00:25:34;;;;;;;18.33;16.50;;;;;;;;;;5000205;28;20179;-70
2022/06/26 00:27:59;;;;;;;20.83;15.73;;;;;;;;;;4979547;28;20419;-69
2022/06/26 00:30:24;;;;;;;20.98;17.15;;;;;;;;;;5013498;28;20186;-70
2022/06/26 00:32:50;;;;;;;22.02;19.25;;;;;;;;;;5011185;28;20286;-70
2022/06/26 00:35:15;;;;;;;22.40;19.77;;;;;;;;;;5005254;28;20222;-70
2022/06/26 00:37:40;;;;;;;24.05;21.42;;;;;;;;;;5008631;28;20284;-70
2022/06/26 00:40:06;;;;;;;21.73;19.38;;;;;;;;;;5009432;28;20171;-69
2022/06/26 00:42:31;;;;;;;22.02;18.77;;;;;;;;;;5010795;28;20285;-70
2022/06/26 00:44:56;;;;;;;24.30;21.70;;;;;;;;;;5010961;28;20214;-69
2022/06/26 00:47:22;;;;;;;28.88;22.05;;;;;;;;;;5010115;28;20179;-70
2022/06/26 00:49:47;;;;;;;23.38;20.42;;;;;;;;;;5005965;28;20639;-69
2022/06/26 00:52:13;;;;;;;28.45;22.90;;;;;;;;;;5008392;28;20684;-70
2022/06/26 00:54:38;;;;;;;27.30;22.42;;;;;;;;;;5014127;28;20261;-69
2022/06/26 00:57:03;;;;;;;25.33;22.63;;;;;;;;;;5010379;28;20652;-70
2022/06/26 00:59:29;;;;;;;25.00;22.15;;;;;;;;;;5009142;28;20187;-69
2022/06/26 01:01:54;;;;;;;24.77;21.80;;;;;;;;;;5009043;28;20178;-70
2022/06/26 01:04:19;;;;;;;26.98;23.33;;;;;;;;;;5010118;28;20294;-70
2022/06/26 01:06:45;;;;;;;26.50;23.40;;;;;;;;;;5005678;28;20206;-69
2022/06/26 01:09:11;;;;;;;28.77;24.05;;;;;;;;;;5002078;28;20206;-69
2022/06/26 01:11:37;;;;;;;29.50;25.05;;;;;;;;;;4989813;28;20690;-69
2022/06/26 01:14:03;;;;;;;26.00;23.30;;;;;;;;;;5010512;28;20277;-69
2022/06/26 01:16:28;;;;;;;26.35;23.52;;;;;;;;;;5006190;28;20747;-70
2022/06/26 01:18:55;;;;;;;28.23;25.23;;;;;;;;;;5006717;28;20236;-70
2022/06/26 01:21:21;;;;;;;31.48;25.00;;;;;;;;;;4979121;28;20183;-70
2022/06/26 01:23:47;;;;;;;27.52;22.83;;;;;;;;;;5000640;28;20684;-70
2022/06/26 01:26:12;;;;;;;27.92;23.30;;;;;;;;;;5002455;28;20186;-70
2022/06/26 01:28:37;;;;;;;26.50;22.67;;;;;;;;;;5008127;28;20185;-70
2022/06/26 01:31:03;;;;;;;26.58;23.10;;;;;;;;;;5009687;28;20190;-70
2022/06/26 01:33:28;;;;;;;28.75;23.67;;;;;;;;;;5012356;28;20699;-70
2022/06/26 01:35:53;;;;;;;26.35;23.27;;;;;;;;;;5010255;28;20190;-70
2022/06/26 01:38:22;;;;;;;27.33;22.63;;;;;;;;;;5008238;28;20191;-71
2022/06/26 01:40:49;;;;;;;25.50;21.52;;;;;;;;;;4997836;28;20810;-70
2022/06/26 01:43:17;;;;;;;28.10;23.13;;;;;;;;;;5009085;28;20210;-71
2022/06/26 01:45:53;;;;;;;28.13;22.52;;;;;;;;;;4993683;28;20290;-70
2022/06/26 01:48:18;;;;;;;27.17;23.13;;;;;;;;;;5009701;28;20182;-71
2022/06/26 01:50:44;;;;;;;28.00;22.55;;;;;;;;;;5011538;28;20179;-71
2022/06/26 01:53:09;;;;;;;25.88;23.20;;;;;;;;;;5006729;28;20217;-70
2022/06/26 01:55:35;;;;;;;28.10;25.13;;;;;;;;;;5003558;28;20183;-68
2022/06/26 01:58:03;;;;;;;30.00;24.13;;;;;;;;;;5003903;28;20179;-69
2022/06/26 02:00:29;;;;;;;25.90;22.40;;;;;;;;;;5010601;28;20175;-69
2022/06/26 02:02:55;;;;;;;26.92;23.17;;;;;;;;;;5009520;28;20577;-71
2022/06/26 02:05:20;;;;;;;29.55;24.33;;;;;;;;;;5010834;28;20261;-71
2022/06/26 02:07:45;;;;;;;28.27;22.27;;;;;;;;;;5003769;28;20183;-69
2022/06/26 02:15:38;;;;;;;27.75;22.40;;;;;;;;;;5006709;28;20189;-69
2022/06/26 02:18:03;;;;;;;26.73;21.73;;;;;;;;;;5005108;28;20186;-71
2022/06/26 02:20:28;;;;;;;31.85;23.95;;;;;;;;;;5006815;28;20174;-71
2022/06/26 02:22:53;;;;;;;28.38;21.38;;;;;;;;;;4999342;28;20734;-72
2022/06/26 02:25:19;;;;;;;25.05;20.95;;;;;;;;;;5009247;28;20207;-71
2022/06/26 02:27:45;;;;;;;28.80;20.80;;;;;;;;;;5001194;28;20290;-72
2022/06/26 02:30:10;;;;;;;24.55;19.50;;;;;;;;;;5004997;28;20210;-70
2022/06/26 02:32:35;;;;;;;27.98;20.08;;;;;;;;;;4999570;28;20722;-70
2022/06/26 02:35:00;;;;;;;28.38;20.45;;;;;;;;;;5006794;28;20198;-71
2022/06/26 02:37:26;;;;;;;27.80;22.20;;;;;;;;;;5007259;28;20668;-70
2022/06/26 02:39:51;;;;;;;26.45;21.20;;;;;;;;;;5011665;28;20178;-71
2022/06/26 02:42:16;;;;;;;27.17;20.23;;;;;;;;;;5011470;28;20712;-71
2022/06/26 02:44:41;;;;;;;28.80;22.02;;;;;;;;;;5006074;28;20241;-71
2022/06/26 02:47:06;;;;;;;30.83;21.85;;;;;;;;;;5008991;28;20206;-69
2022/06/26 02:49:32;;;;;;;30.02;21.67;;;;;;;;;;5011889;28;20179;-69
2022/06/26 02:51:57;;;;;;;30.98;22.55;;;;;;;;;;5012270;28;20215;-71
2022/06/26 02:54:22;;;;;;;34.65;23.02;;;;;;;;;;5012010;28;20206;-69
2022/06/26 02:56:47;;;;;;;32.40;23.33;;;;;;;;;;4995592;28;20190;-71
2022/06/26 02:59:12;;;;;;;33.72;24.25;;;;;;;;;;5004150;28;20265;-69
2022/06/26 03:01:38;;;;;;;36.50;23.30;;;;;;;;;;5001529;28;20620;-69
2022/06/26 03:04:03;;;;;;;34.13;23.88;;;;;;;;;;5009023;28;20206;-71
2022/06/26 03:06:28;;;;;;;34.17;22.88;;;;;;;;;;5006945;28;20175;-71
2022/06/26 03:08:53;;;;;;;34.30;22.75;;;;;;;;;;5011896;28;20175;-70
2022/06/26 03:11:18;;;;;;;32.92;22.67;;;;;;;;;;5010830;28;20555;-71
2022/06/26 03:13:44;;;;;;;33.35;21.98;;;;;;;;;;5011664;28;20218;-71
2022/06/26 03:16:09;;;;;;;35.15;23.20;;;;;;;;;;5011757;28;20183;-72
2022/06/26 03:18:34;;;;;;;30.77;22.02;;;;;;;;;;5010831;28;20758;-72
2022/06/26 03:20:59;;;;;;;29.77;20.80;;;;;;;;;;4991714;28;20183;-71
2022/06/26 03:24:01;;;;;;;30.58;21.23;;;;;;;;;;5000843;28;20615;-71
2022/06/26 03:26:10;;;;;;;32.75;21.50;;;;;;;;;;5009894;28;20198;-71
2022/06/26 03:28:35;;;;;;;30.38;21.00;;;;;;;;;;5009224;28;20183;-71
2022/06/26 03:31:00;;;;;;;34.38;21.38;;;;;;;;;;5008437;28;20198;-70
2022/06/26 03:33:25;;;;;;;29.85;21.15;;;;;;;;;;5013578;28;20197;-71
2022/06/26 03:35:50;;;;;;;29.38;20.23;;;;;;;;;;5009675;28;20175;-69
2022/06/26 03:38:16;;;;;;;31.23;19.83;;;;;;;;;;5008862;28;20703;-69
2022/06/26 03:40:41;;;;;;;30.48;20.13;;;;;;;;;;5000951;28;20192;-69
2022/06/26 03:43:09;;;;;;;28.33;18.75;;;;;;;;;;5011172;28;20205;-69
2022/06/26 03:45:34;;;;;;;26.05;17.23;;;;;;;;;;5012772;28;20249;-72
2022/06/26 03:48:00;;;;;;;28.95;18.48;;;;;;;;;;5006202;28;20175;-71
2022/06/26 03:50:25;;;;;;;28.85;17.83;;;;;;;;;;5012149;28;20219;-69
2022/06/26 03:52:50;;;;;;;25.80;16.95;;;;;;;;;;5011824;28;20211;-69
2022/06/26 03:55:15;;;;;;;28.63;18.00;;;;;;;;;;5011021;28;20175;-71
2022/06/26 03:57:40;;;;;;;23.75;17.15;;;;;;;;;;5004559;28;20194;-70
2022/06/26 04:00:06;;;;;;;27.63;18.00;;;;;;;;;;4994232;28;20194;-71
2022/06/26 04:02:31;;;;;;;28.20;18.42;;;;;;;;;;4991227;28;20211;-71
2022/06/26 04:04:56;;;;;;;30.90;18.95;;;;;;;;;;5010345;28;20285;-69
2022/06/26 04:07:21;;;;;;;27.70;17.98;;;;;;;;;;5010590;28;20179;-72
2022/06/26 04:09:47;;;;;;;29.80;18.40;;;;;;;;;;5011170;28;20187;-69
2022/06/26 04:12:12;;;;;;;31.52;19.52;;;;;;;;;;4991021;28;20210;-69
2022/06/26 04:14:37;;;;;;;25.35;17.35;;;;;;;;;;5001790;28;20202;-70
2022/06/26 04:17:03;;;;;;;31.70;19.58;;;;;;;;;;5008992;28;20724;-69
2022/06/26 04:19:28;;;;;;;33.20;20.23;;;;;;;;;;5007669;28;20553;-71
2022/06/26 04:21:53;;;;;;;32.63;19.75;;;;;;;;;;5008831;28;20190;-70
2022/06/26 04:24:18;;;;;;;29.85;19.15;;;;;;;;;;5010430;28;20211;-70
2022/06/26 04:26:43;;;;;;;26.33;18.60;;;;;;;;;;5006989;28;20735;-70
2022/06/26 04:29:09;;;;;;;33.42;20.45;;;;;;;;;;4990830;28;20179;-71
2022/06/26 04:31:34;;;;;;;27.63;19.40;;;;;;;;;;5009275;28;20556;-71
2022/06/26 04:33:59;;;;;;;29.55;18.77;;;;;;;;;;5003586;28;20282;-71
2022/06/26 04:36:24;;;;;;;30.75;20.02;;;;;;;;;;5010482;28;20179;-72
2022/06/26 04:38:49;;;;;;;32.22;19.63;;;;;;;;;;5011356;28;20556;-71
2022/06/26 04:43:58;;;;;;;26.85;19.25;;;;;;;;;;5011092;28;20723;-71
2022/06/26 04:46:24;;;;;;;25.15;16.92;;;;;;;;;;5011189;28;20183;-71
2022/06/26 04:48:49;;;;;;;25.00;16.77;;;;;;;;;;5007604;28;20202;-70
2022/06/26 04:51:14;;;;;;;26.27;16.17;;;;;;;;;;4998757;28;20186;-70
2022/06/26 04:53:40;;;;;;;19.27;14.00;;;;;;;;;;5006972;28;20219;-70
2022/06/26 04:56:05;;;;;;;17.52;14.65;;;;;;;;;;5009254;28;20562;-69
2022/06/26 04:58:31;;;;;;;15.55;13.73;;;;;;;;;;5010942;28;20186;-70
2022/06/26 05:00:56;;;;;;;15.85;13.15;;;;;;;;;;5008813;28;20583;-70
2022/06/26 05:03:21;;;;;;;18.33;13.30;;;;;;;;;;5010597;28;20231;-70
2022/06/26 05:05:46;;;;;;;14.85;12.18;;;;;;;;;;5007922;28;20560;-70
2022/06/26 05:08:11;;;;;;;14.55;12.25;;;;;;;;;;5002893;28;20199;-70
2022/06/26 05:10:36;;;;;;;14.65;11.88;;;;;;;;;;5002403;28;20620;-70
2022/06/26 05:13:02;;;;;;;12.50;11.10;;;;;;;;;;5002019;28;20262;-70
2022/06/26 05:15:27;;;;;;;15.40;10.20;;;;;;;;;;5005728;28;20191;-69
2022/06/26 05:17:52;;;;;;;11.25;9.38;;;;;;;;;;5006764;28;20578;-70
2022/06/26 05:20:17;;;;;;;10.97;8.80;;;;;;;;;;5001075;28;20180;-70
2022/06/26 05:22:43;;;;;;;14.57;9.75;;;;;;;;;;5004389;28;20546;-70
2022/06/26 05:25:08;;;;;;;13.82;9.60;;;;;;;;;;5009264;28;20597;-70
2022/06/26 05:27:33;;;;;;;11.63;9.48;;;;;;;;;;5006629;28;20270;-70
2022/06/26 05:29:58;;;;;;;12.30;10.05;;;;;;;;;;4999108;28;20241;-70
2022/06/26 05:32:23;;;;;;;14.23;9.35;;;;;;;;;;5003847;28;20702;-70
2022/06/26 05:34:49;;;;;;;10.70;8.85;;;;;;;;;;5001318;28;20670;-70
2022/06/26 05:37:14;;;;;;;11.80;8.32;;;;;;;;;;5008337;28;20191;-70
2022/06/26 05:39:39;;;;;;;12.35;9.13;;;;;;;;;;5008837;28;20194;-70
2022/06/26 05:42:04;;;;;;;9.45;8.25;;;;;;;;;;5007555;28;20210;-70
2022/06/26 05:44:30;;;;;;;11.77;9.10;;;;;;;;;;5007429;28;20214;-71
2022/06/26 05:46:55;;;;;;;11.90;8.82;;;;;;;;;;5003297;28;20179;-70
2022/06/26 05:49:20;;;;;;;10.23;8.07;;;;;;;;;;5006712;28;20600;-70
2022/06/26 05:51:45;;;;;;;11.43;7.80;;;;;;;;;;5007168;28;20329;-70
2022/06/26 05:54:10;;;;;;;9.88;7.57;;;;;;;;;;5010243;28;20210;-70
2022/06/26 05:56:36;;;;;;;11.60;8.02;;;;;;;;;;5006758;28;20214;-71
2022/06/26 05:59:01;;;;;;;9.40;7.20;;;;;;;;;;5010036;28;20272;-70
2022/06/26 06:01:26;;;;;;;9.35;7.40;;;;;;;;;;5003302;28;20186;-70
2022/06/26 06:03:51;;;;;;;7.85;7.05;;;;;;;;;;4987778;28;20219;-70
2022/06/26 06:06:16;;;;;;;9.55;7.18;;;;;;;;;;5000443;28;20181;-70
2022/06/26 06:08:42;;;;;;;11.15;7.03;;;;;;;;;;5004259;28;20660;-70
2022/06/26 06:11:07;;;;;;;8.07;6.78;;;;;;;;;;5009590;28;20266;-71
2022/06/26 06:13:32;;;;;;;9.97;6.50;;;;;;;;;;5009423;28;22032;-71
2022/06/26 06:15:57;;;;;;;8.68;6.35;;;;;;;;;;5010350;28;20464;-70
2022/06/26 06:18:22;;;;;;;7.60;6.20;;;;;;;;;;5003628;28;20195;-71
2022/06/26 06:20:50;;;;;;;9.95;5.53;;;;;;;;;;5003068;28;20167;-70
2022/06/26 06:23:15;;;;;;;8.55;6.20;;;;;;;;;;4974147;28;20219;-71
2022/06/26 06:25:41;;;;;;;8.27;6.10;;;;;;;;;;4998272;28;20198;-71
2022/06/26 06:28:06;;;;;;;5.90;5.30;;;;;;;;;;4998321;28;20625;-71
2022/06/26 06:30:31;;;;;;;6.10;5.50;;;;;;;;;;5008105;28;20207;-71
2022/06/26 06:32:56;;;;;;;8.00;6.20;;;;;;;;;;5009356;28;20207;-71
2022/06/26 06:35:22;;;;;;;13.45;6.15;;;;;;;;;;5009428;28;20190;-71
2022/06/26 06:37:47;;;;;;;8.75;5.22;;;;;;;;;;4998998;28;20559;-71
2022/06/26 06:40:13;;;;;;;7.32;5.05;;;;;;;;;;5009206;28;20596;-71
2022/06/26 06:42:38;;;;;;;5.85;5.13;;;;;;;;;;5006094;28;21198;-71
2022/06/26 06:45:04;;;;;;;6.88;4.97;;;;;;;;;;5009045;28;20229;-71
2022/06/26 06:47:29;;;;;;;6.53;5.80;;;;;;;;;;5008430;28;20237;-71
2022/06/26 06:49:55;;;;;;;10.82;5.20;;;;;;;;;;5008818;28;20233;-71
2022/06/26 06:52:20;;;;;;;5.45;4.65;;;;;;;;;;5008210;28;20192;-71
2022/06/26 06:54:45;;;;;;;7.75;5.70;;;;;;;;;;4999018;28;22237;-71
2022/06/26 06:57:10;;;;;;;5.68;4.75;;;;;;;;;;5011211;28;20174;-71
2022/06/26 06:59:35;;;;;;;5.25;4.43;;;;;;;;;;5006718;28;20187;-71
2022/06/26 07:02:01;;;;;;;7.28;4.65;;;;;;;;;;4990954;28;20175;-71
2022/06/26 07:04:26;;;;;;;7.63;4.53;;;;;;;;;;5004808;28;20735;-71
2022/06/26 07:06:51;;;;;;;6.60;4.45;;;;;;;;;;5008783;28;20183;-70
2022/06/26 07:09:16;;;;;;;6.00;4.00;;;;;;;;;;4999055;28;20608;-71
2022/06/26 07:11:42;;;;;;;4.28;3.47;;;;;;;;;;5007836;28;20249;-71
2022/06/26 07:14:07;;;;;;;6.43;3.00;;;;;;;;;;5011140;28;20656;-71
2022/06/26 07:16:32;;;;;;;4.05;2.45;;;;;;;;;;4984339;28;20187;-71
2022/06/26 07:18:57;;;;;;;4.57;2.35;;;;;;;;;;5005310;28;20175;-71
2022/06/26 07:21:23;;;;;;;4.88;2.30;;;;;;;;;;5010289;28;20604;-71
2022/06/26 07:23:48;;;;;;;5.90;3.25;;;;;;;;;;5005643;28;20428;-72
2022/06/26 07:26:13;;;;;;;3.03;2.63;;;;;;;;;;5010280;28;20190;-72
2022/06/26 07:28:38;;;;;;;7.43;3.00;;;;;;;;;;5011550;28;20943;-71
2022/06/26 07:31:04;;;;;;;5.25;2.85;;;;;;;;;;5011970;28;20658;-71
2022/06/26 07:36:13;;;;;;;4.13;2.78;;;;;;;;;;4998436;28;20205;-72
2022/06/26 07:38:38;;;;;;;3.83;2.25;;;;;;;;;;5003032;28;20171;-71
2022/06/26 07:41:03;;;;;;;3.83;2.50;;;;;;;;;;4997804;28;20467;-72
2022/06/26 07:43:29;;;;;;;3.60;2.65;;;;;;;;;;4995062;28;20202;-71
2022/06/26 07:45:54;;;;;;;4.97;2.80;;;;;;;;;;4989606;28;20211;-71
2022/06/26 07:48:19;;;;;;;4.82;3.00;;;;;;;;;;4990534;28;20649;-71
2022/06/26 07:50:45;;;;;;;4.53;2.60;;;;;;;;;;4986621;28;20175;-72
2022/06/26 07:53:10;;;;;;;5.03;2.67;;;;;;;;;;4970414;28;21004;-72
2022/06/26 07:55:35;;;;;;;5.40;2.97;;;;;;;;;;4988532;28;20726;-71
2022/06/26 07:58:00;;;;;;;5.10;3.17;;;;;;;;;;4986490;28;20697;-72
2022/06/26 08:00:26;;;;;;;2.90;2.43;;;;;;;;;;4987563;28;20273;-72
2022/06/26 08:02:51;;;;;;;4.85;2.80;;;;;;;;;;4985386;28;20451;-72
2022/06/26 08:05:17;;;;;;;4.63;2.80;;;;;;;;;;4988478;28;20344;-72
2022/06/26 08:07:42;;;;;;;3.63;2.65;;;;;;;;;;4987305;28;20171;-71
2022/06/26 08:10:07;;;;;;;5.45;2.67;;;;;;;;;;4987207;28;20971;-71
2022/06/26 08:12:32;;;;;;;3.28;2.38;;;;;;;;;;4987479;28;20200;-70
2022/06/26 08:14:58;;;;;;;4.15;2.35;;;;;;;;;;4978340;28;20187;-71
2022/06/26 08:17:23;;;;;;;4.33;3.13;;;;;;;;;;4992709;28;20729;-72
2022/06/26 08:19:48;;;;;;;4.03;2.53;;;;;;;;;;4990199;28;20436;-72
2022/06/26 08:22:13;;;;;;;4.85;2.58;;;;;;;;;;4988050;28;20256;-71
2022/06/26 08:24:41;;;;;;;5.57;2.08;;;;;;;;;;4987749;28;20687;-72
2022/06/26 08:27:07;;;;;;;3.58;2.50;;;;;;;;;;4986050;28;20653;-71
2022/06/26 08:29:32;;;;;;;3.17;2.00;;;;;;;;;;4990637;28;20198;-71
2022/06/26 08:31:58;;;;;;;3.67;2.25;;;;;;;;;;5007192;28;20175;-72
2022/06/26 08:34:23;;;;;;;3.05;1.85;;;;;;;;;;5004368;28;20186;-71
2022/06/26 08:36:48;;;;;;;4.47;2.58;;;;;;;;;;5009537;28;20652;-71
2022/06/26 08:39:13;;;;;;;5.85;2.60;;;;;;;;;;5009329;28;20582;-72
2022/06/26 08:41:42;;;;;;;4.88;2.13;;;;;;;;;;5011925;28;20236;-72
2022/06/26 08:44:08;;;;;;;4.75;2.50;;;;;;;;;;4993219;28;20249;-72
2022/06/26 08:46:38;;;;;;;4.55;2.88;;;;;;;;;;5010873;28;20184;-71
2022/06/26 08:49:07;;;;;;;3.05;2.75;;;;;;;;;;5012075;28;20197;-71
2022/06/26 08:51:33;;;;;;;2.85;2.55;;;;;;;;;;5010448;28;20190;-71
2022/06/26 08:53:59;;;;;;;3.55;2.88;;;;;;;;;;5008899;28;20232;-72
2022/06/26 08:56:24;;;;;;;4.07;2.53;;;;;;;;;;5012679;28;20178;-72
2022/06/26 08:58:50;;;;;;;6.10;2.83;;;;;;;;;;5011772;28;20186;-71
2022/06/26 09:01:15;;;;;;;3.97;2.28;;;;;;;;;;5008907;28;20829;-72
2022/06/26 09:03:40;;;;;;;3.47;2.23;;;;;;;;;;5012608;28;20199;-72
2022/06/26 09:06:05;;;;;;;3.43;2.40;;;;;;;;;;4987382;28;20479;-71
2022/06/26 09:08:41;;;;;;;4.30;2.53;;;;;;;;;;4985890;28;20428;-72
2022/06/26 09:11:07;;;;;;;5.05;2.45;;;;;;;;;;4988565;28;20436;-70
2022/06/26 09:13:36;;;;;;;4.38;2.40;;;;;;;;;;4988725;28;20206;-71
2022/06/26 09:16:01;;;;;;;4.45;2.10;;;;;;;;;;4987383;28;20190;-70
2022/06/26 09:18:32;;;;;;;3.45;2.20;;;;;;;;;;4987242;28;20179;-71
2022/06/26 09:20:57;;;;;;;2.95;2.25;;;;;;;;;;4987832;28;21647;-71
2022/06/26 09:23:22;;;;;;;4.25;2.45;;;;;;;;;;4986828;28;20204;-71
2022/06/26 09:25:48;;;;;;;3.58;2.05;;;;;;;;;;4984601;28;20301;-71
2022/06/26 09:28:14;;;;;;;3.63;2.10;;;;;;;;;;4986579;28;20187;-71
2022/06/26 09:30:46;;;;;;;3.30;2.15;;;;;;;;;;4997468;28;20764;-71
2022/06/26 09:33:11;;;;;;;4.13;2.58;;;;;;;;;;5006797;28;20293;-71
2022/06/26 09:35:37;;;;;;;4.03;2.33;;;;;;;;;;5010114;28;20667;-71
2022/06/26 09:38:03;;;;;;;2.92;2.28;;;;;;;;;;5012544;28;20642;-72
2022/06/26 09:40:28;;;;;;;3.83;2.50;;;;;;;;;;4997532;28;20554;-74
2022/06/26 09:42:53;;;;;;;4.07;2.80;;;;;;;;;;5008415;28;20206;-72
2022/06/26 09:45:19;;;;;;;3.28;2.70;;;;;;;;;;5002313;28;20218;-71
2022/06/26 09:47:44;;;;;;;3.95;2.45;;;;;;;;;;4985411;28;20183;-71
2022/06/26 09:50:09;;;;;;;3.58;2.90;;;;;;;;;;4985928;28;20178;-71
2022/06/26 09:52:35;;;;;;;5.65;2.90;;;;;;;;;;4985325;28;20925;-71
2022/06/26 09:55:00;;;;;;;6.55;2.45;;;;;;;;;;4986266;28;20190;-71
2022/06/26 09:57:26;;;;;;;4.20;2.85;;;;;;;;;;4985784;28;20343;-70
2022/06/26 09:59:52;;;;;;;3.50;1.90;;;;;;;;;;4990852;28;20194;-71
2022/06/26 10:07:55;;;;;;;4.35;2.00;;;;;;;;;;4985573;28;20190;-71
2022/06/26 10:10:21;;;;;;;2.28;1.70;;;;;;;;;;4970234;28;20270;-71
2022/06/26 10:12:49;;;;;;;5.45;2.72;;;;;;;;;;4986075;28;20225;-71
2022/06/26 10:15:16;;;;;;;3.83;1.75;;;;;;;;;;4990823;28;20270;-70
2022/06/26 10:17:56;;;;;;;2.40;2.15;;;;;;;;;;4986043;28;20228;-71
2022/06/26 10:20:22;;;;;;;3.42;2.63;;;;;;;;;;4989619;28;20186;-71
2022/06/26 10:22:47;;;;;;;3.17;2.47;;;;;;;;;;4987457;28;20222;-71
2022/06/26 10:25:23;;;;;;;6.82;2.78;;;;;;;;;;4982297;28;20210;-71
2022/06/26 10:27:49;;;;;;;4.75;3.42;;;;;;;;;;4969819;28;21222;-70
2022/06/26 10:30:15;;;;;;;4.80;2.80;;;;;;;;;;5004717;28;20290;-71
2022/06/26 10:32:41;;;;;;;3.60;2.33;;;;;;;;;;5011570;28;20195;-71
2022/06/26 10:35:07;;;;;;;3.65;2.45;;;;;;;;;;5007451;28;20179;-71
2022/06/26 10:37:48;;;;;;;3.28;2.30;;;;;;;;;;5009635;28;20244;-71
2022/06/26 10:42:52;;;;;;;8.95;2.47;;;;;;;;;;5008432;28;20735;-70
2022/06/26 10:43:00;;;;;;;4.75;2.85;;;;;;;;;;5007435;28;20217;-71
2022/06/26 10:45:25;;;;;;;6.03;2.67;;;;;;;;;;4993026;28;20198;-72
2022/06/26 10:47:52;;;;;;;5.07;2.63;;;;;;;;;;5007469;28;20278;-71
2022/06/26 10:50:25;;;;;;;4.63;2.60;;;;;;;;;;4993094;28;20205;-71
2022/06/26 10:52:50;;;;;;;5.38;3.22;;;;;;;;;;4973765;28;20277;-71
2022/06/26 10:55:15;;;;;;;5.05;2.67;;;;;;;;;;5006035;28;20550;-71
2022/06/26 10:57:40;;;;;;;3.88;2.72;;;;;;;;;;5009532;28;20183;-71
2022/06/26 11:00:07;;;;;;;4.10;2.53;;;;;;;;;;5007320;28;20174;-71
2022/06/26 11:02:37;;;;;;;3.22;2.65;;;;;;;;;;4989915;28;20456;-71
2022/06/26 11:05:03;;;;;;;4.28;3.00;;;;;;;;;;4988284;28;20207;-71
2022/06/26 11:07:28;;;;;;;4.18;3.72;;;;;;;;;;4992368;28;20168;-71
2022/06/26 11:09:56;;;;;;;4.03;2.70;;;;;;;;;;4989167;28;20194;-71
2022/06/26 11:12:22;;;;;;;3.17;2.72;;;;;;;;;;4988200;28;20503;-71
2022/06/26 11:14:47;;;;;;;3.23;2.90;;;;;;;;;;4996596;28;20183;-70
2022/06/26 11:17:12;;;;;;;5.90;3.45;;;;;;;;;;4995646;28;20526;-71
2022/06/26 11:22:21;;;;;;;6.13;4.00;;;;;;;;;;4987804;28;20290;-71
2022/06/26 11:24:49;;;;;;;4.80;4.22;;;;;;;;;;4986611;28;20207;-72
2022/06/26 11:27:15;;;;;;;3.55;2.90;;;;;;;;;;4986117;28;20275;-70
2022/06/26 11:29:40;;;;;;;3.92;2.88;;;;;;;;;;4988753;28;20240;-70
2022/06/26 11:32:06;;;;;;;3.53;2.72;;;;;;;;;;4988605;28;20186;-71
2022/06/26 11:34:31;;;;;;;4.35;2.72;;;;;;;;;;4986474;28;20420;-71
2022/06/26 11:36:57;;;;;;;5.23;2.83;;;;;;;;;;4989826;28;20226;-71
2022/06/26 11:39:24;;;;;;;6.03;3.30;;;;;;;;;;4986831;28;20424;-70
2022/06/26 11:41:49;;;;;;;3.30;2.80;;;;;;;;;;4993679;28;20183;-72
2022/06/26 11:44:14;;;;;;;5.07;2.97;;;;;;;;;;4991662;28;20268;-70
2022/06/26 11:46:40;;;;;;;4.53;3.22;;;;;;;;;;4990149;28;20182;-71
2022/06/26 11:49:08;;;;;;;5.95;3.25;;;;;;;;;;4987426;28;20187;-71
2022/06/26 11:51:33;;;;;;;7.78;3.55;;;;;;;;;;4988502;28;20175;-70
2022/06/26 11:53:59;;;;;;;3.57;3.20;;;;;;;;;;4988684;28;20594;-70
2022/06/26 11:56:25;;;;;;;4.78;3.30;;;;;;;;;;4988074;28;20922;-70
2022/06/26 11:58:52;;;;;;;7.15;3.58;;;;;;;;;;4984998;28;20183;-70
2022/06/26 12:01:17;;;;;;;6.07;3.80;;;;;;;;;;4986084;28;20190;-71
2022/06/26 12:03:45;;;;;;;5.05;3.53;;;;;;;;;;4986528;28;20207;-70
2022/06/26 12:06:10;;;;;;;3.42;3.13;;;;;;;;;;4985732;28;20283;-71
2022/06/26 12:08:36;;;;;;;5.23;3.43;;;;;;;;;;4986520;28;20339;-71
2022/06/26 12:11:01;;;;;;;4.97;3.90;;;;;;;;;;4971257;28;20930;-71
2022/06/26 12:13:29;;;;;;;5.63;4.38;;;;;;;;;;4985571;28;20453;-71
2022/06/26 12:16:00;;;;;;;5.38;3.88;;;;;;;;;;4991133;28;20179;-70
2022/06/26 12:18:26;;;;;;;3.72;3.42;;;;;;;;;;4985575;28;20187;-70
2022/06/26 12:20:51;;;;;;;4.82;4.10;;;;;;;;;;4994289;28;20300;-71
2022/06/26 12:23:16;;;;;;;5.60;3.35;;;;;;;;;;4984322;28;20289;-70
2022/06/26 12:25:44;;;;;;;5.20;2.80;;;;;;;;;;4986807;28;20207;-71
2022/06/26 12:28:19;;;;;;;3.13;2.75;;;;;;;;;;4988369;28;20714;-71
2022/06/26 12:30:44;;;;;;;2.55;2.35;;;;;;;;;;5009866;28;20269;-71
2022/06/26 12:33:09;;;;;;;3.85;2.65;;;;;;;;;;5013086;28;20274;-71
2022/06/26 12:35:35;;;;;;;3.30;2.22;;;;;;;;;;5011685;28;21391;-72
2022/06/26 12:38:01;;;;;;;5.28;3.20;;;;;;;;;;5013613;28;20191;-71
2022/06/26 12:40:27;;;;;;;3.95;2.40;;;;;;;;;;5009834;28;20210;-71
2022/06/26 12:42:52;;;;;;;4.28;2.13;;;;;;;;;;5012500;28;20282;-71
2022/06/26 12:45:18;;;;;;;6.13;2.42;;;;;;;;;;5010349;28;20207;-71
2022/06/26 12:47:43;;;;;;;4.93;2.10;;;;;;;;;;5011508;28;20557;-71
2022/06/26 12:50:09;;;;;;;4.25;2.25;;;;;;;;;;5011944;28;20517;-72
2022/06/26 12:52:34;;;;;;;3.00;1.73;;;;;;;;;;5011930;28;20214;-70
2022/06/26 12:55:00;;;;;;;3.28;2.17;;;;;;;;;;5012686;28;20230;-72
2022/06/26 12:57:26;;;;;;;2.25;1.95;;;;;;;;;;5011353;28;20190;-72
2022/06/26 12:59:51;;;;;;;6.20;2.13;;;;;;;;;;5011892;28;20183;-72
2022/06/26 13:02:16;;;;;;;3.43;1.97;;;;;;;;;;5012282;28;20199;-73
2022/06/26 13:04:41;;;;;;;4.00;1.90;;;;;;;;;;5004888;28;20468;-73
2022/06/26 13:07:06;;;;;;;4.83;1.97;;;;;;;;;;4986232;28;20424;-73
2022/06/26 13:09:32;;;;;;;3.42;1.85;;;;;;;;;;4983651;28;20433;-73
2022/06/26 13:11:57;;;;;;;3.60;1.65;;;;;;;;;;4971650;28;20611;-73
2022/06/26 13:14:22;;;;;;;1.95;1.40;;;;;;;;;;4992676;28;20187;-73
2022/06/26 13:16:48;;;;;;;2.28;1.42;;;;;;;;;;4970643;28;20309;-73
2022/06/26 13:19:13;;;;;;;4.45;1.73;;;;;;;;;;4985842;28;20755;-73
2022/06/26 13:21:38;;;;;;;3.47;1.50;;;;;;;;;;4986176;28;20187;-73
2022/06/26 13:24:04;;;;;;;3.90;1.70;;;;;;;;;;4988105;28;20957;-73
2022/06/26 13:26:29;;;;;;;5.07;1.52;;;;;;;;;;4987235;28;20194;-73
2022/06/26 13:28:54;;;;;;;2.88;1.70;;;;;;;;;;4985427;28;20198;-73
2022/06/26 13:31:19;;;;;;;5.27;1.57;;;;;;;;;;4988063;28;20184;-72
2022/06/26 13:33:45;;;;;;;4.35;1.52;;;;;;;;;;4984278;28;20440;-73
2022/06/26 13:36:10;;;;;;;3.57;1.77;;;;;;;;;;4986802;28;20184;-73
2022/06/26 13:38:35;;;;;;;3.45;1.40;;;;;;;;;;4985477;28;20926;-73
2022/06/26 13:41:01;;;;;;;3.25;1.52;;;;;;;;;;4970766;28;20392;-73
2022/06/26 13:43:26;;;;;;;3.17;1.50;;;;;;;;;;4988285;28;20227;-73
2022/06/26 13:45:51;;;;;;;3.50;1.50;;;;;;;;;;4988376;28;20649;-73
2022/06/26 13:48:16;;;;;;;3.50;2.30;;;;;;;;;;4986113;28;20213;-73
2022/06/26 13:50:42;;;;;;;4.10;1.40;;;;;;;;;;4969266;28;20452;-73
2022/06/26 13:53:07;;;;;;;3.85;1.67;;;;;;;;;;4985718;28;20273;-73
2022/06/26 13:55:32;;;;;;;2.92;1.65;;;;;;;;;;4987279;28;20192;-73
2022/06/26 13:57:58;;;;;;;5.60;2.17;;;;;;;;;;4986131;28;21263;-73
2022/06/26 14:00:24;;;;;;;6.43;2.10;;;;;;;;;;4990329;28;20219;-73
2022/06/26 14:02:49;;;;;;;4.15;1.95;;;;;;;;;;4987592;28;20723;-73
2022/06/26 14:05:14;;;;;;;5.20;2.00;;;;;;;;;;4987514;28;20230;-73
2022/06/26 14:07:40;;;;;;;4.40;1.90;;;;;;;;;;4984046;28;20432;-73
2022/06/26 14:10:05;;;;;;;5.30;1.63;;;;;;;;;;4986544;28;20451;-73
2022/06/26 14:12:30;;;;;;;6.00;2.60;;;;;;;;;;4987457;28;20735;-73
2022/06/26 14:14:56;;;;;;;5.50;2.47;;;;;;;;;;4992418;28;20179;-73
2022/06/26 14:17:21;;;;;;;3.15;2.08;;;;;;;;;;4984243;28;20429;-73
2022/06/26 14:19:46;;;;;;;2.70;1.85;;;;;;;;;;4988879;28;20199;-73
2022/06/26 14:27:39;;;;;;;3.60;2.03;;;;;;;;;;4982580;28;21108;-72
2022/06/26 14:30:05;;;;;;;3.10;1.75;;;;;;;;;;5000421;28;20279;-73
2022/06/26 14:32:30;;;;;;;6.13;2.20;;;;;;;;;;4997174;28;20220;-73
2022/06/26 14:34:55;;;;;;;3.33;2.05;;;;;;;;;;5015353;28;20193;-73
2022/06/26 14:37:21;;;;;;;4.07;2.03;;;;;;;;;;5015164;28;20183;-73
2022/06/26 14:39:46;;;;;;;5.43;1.97;;;;;;;;;;5011067;28;20664;-73
2022/06/26 14:42:11;;;;;;;4.07;1.90;;;;;;;;;;5013586;28;20436;-73
2022/06/26 14:44:36;;;;;;;3.00;1.60;;;;;;;;;;5013786;28;22081;-73
2022/06/26 14:47:02;;;;;;;4.00;1.50;;;;;;;;;;5021692;28;20886;-73
2022/06/26 14:49:27;;;;;;;3.15;1.92;;;;;;;;;;5018981;28;20415;-72